sensor_id;sensor_type;location;lat;lon;timestamp;pressure;altitude;pressure_sealevel;temperature;humidity
70323;BME280;57735;56.264;43.898;2024-03-02T00:00:29;102156.53;;;1.03;82.25
70323;BME280;57735;56.264;43.898;2024-03-02T00:03:00;102158.34;;;1.01;82.31
70323;BME280;57735;56.264;43.898;2024-03-02T00:05:31;102153.25;;;0.96;82.93
70323;BME280;57735;56.264;43.898;2024-03-02T00:08:05;102159.31;;;0.98;82.71
70323;BME280;57735;56.264;43.898;2024-03-02T00:10:40;102157.66;;;0.96;82.55
70323;BME280;57735;56.264;43.898;2024-03-02T00:13:12;102154.16;;;0.95;82.84
70323;BME280;57735;56.264;43.898;2024-03-02T00:18:26;102154.88;;;1.00;83.60
70323;BME280;57735;56.264;43.898;2024-03-02T00:20:57;102165.22;;;1.05;83.79
70323;BME280;57735;56.264;43.898;2024-03-02T00:23:32;102157.28;;;1.07;83.46
70323;BME280;57735;56.264;43.898;2024-03-02T00:26:04;102155.47;;;1.09;83.70
70323;BME280;57735;56.264;43.898;2024-03-02T00:28:36;102159.81;;;1.10;83.48
70323;BME280;57735;56.264;43.898;2024-03-02T00:31:09;102159.75;;;1.13;83.57
70323;BME280;57735;56.264;43.898;2024-03-02T00:33:45;102159.69;;;1.14;83.32
70323;BME280;57735;56.264;43.898;2024-03-02T00:36:26;102151.00;;;1.12;83.25
70323;BME280;57735;56.264;43.898;2024-03-02T00:38:57;102147.41;;;1.15;83.08
70323;BME280;57735;56.264;43.898;2024-03-02T00:41:32;102153.56;;;1.14;82.86
70323;BME280;57735;56.264;43.898;2024-03-02T00:44:07;102157.09;;;1.13;82.96
70323;BME280;57735;56.264;43.898;2024-03-02T00:46:40;102158.81;;;1.14;82.93
70323;BME280;57735;56.264;43.898;2024-03-02T00:51:52;102161.34;;;1.17;82.52
70323;BME280;57735;56.264;43.898;2024-03-02T00:54:25;102160.56;;;1.15;82.33
70323;BME280;57735;56.264;43.898;2024-03-02T00:56:57;102170.34;;;1.10;81.92
70323;BME280;57735;56.264;43.898;2024-03-02T00:59:27;102163.50;;;1.04;82.12
70323;BME280;57735;56.264;43.898;2024-03-02T01:01:58;102162.63;;;1.03;82.12
70323;BME280;57735;56.264;43.898;2024-03-02T01:04:29;102158.34;;;1.01;82.01
70323;BME280;57735;56.264;43.898;2024-03-02T01:07:00;102167.94;;;1.02;82.20
70323;BME280;57735;56.264;43.898;2024-03-02T01:09:31;102166.16;;;1.02;82.55
70323;BME280;57735;56.264;43.898;2024-03-02T01:12:01;102177.41;;;1.08;82.56
70323;BME280;57735;56.264;43.898;2024-03-02T01:14:32;102171.25;;;1.09;82.55
70323;BME280;57735;56.264;43.898;2024-03-02T01:17:03;102169.53;;;1.08;82.35
70323;BME280;57735;56.264;43.898;2024-03-02T01:19:35;102172.16;;;1.08;82.03
70323;BME280;57735;56.264;43.898;2024-03-02T01:22:05;102173.97;;;1.05;82.05
70323;BME280;57735;56.264;43.898;2024-03-02T01:24:36;102188.91;;;1.03;82.04
70323;BME280;57735;56.264;43.898;2024-03-02T01:27:07;102182.94;;;0.98;82.16
70323;BME280;57735;56.264;43.898;2024-03-02T01:29:38;102181.31;;;0.94;82.33
70323;BME280;57735;56.264;43.898;2024-03-02T01:32:09;102184.91;;;0.92;82.42
70323;BME280;57735;56.264;43.898;2024-03-02T01:34:39;102192.91;;;0.87;83.08
70323;BME280;57735;56.264;43.898;2024-03-02T01:37:10;102194.63;;;0.88;83.54
70323;BME280;57735;56.264;43.898;2024-03-02T01:39:42;102193.72;;;0.89;83.21
70323;BME280;57735;56.264;43.898;2024-03-02T01:42:13;102191.19;;;0.86;83.05
70323;BME280;57735;56.264;43.898;2024-03-02T01:44:43;102196.44;;;0.86;83.21
70323;BME280;57735;56.264;43.898;2024-03-02T01:47:14;102187.66;;;0.87;83.13
70323;BME280;57735;56.264;43.898;2024-03-02T01:49:45;102198.16;;;0.87;83.27
70323;BME280;57735;56.264;43.898;2024-03-02T01:52:16;102196.44;;;0.86;83.36
70323;BME280;57735;56.264;43.898;2024-03-02T01:54:47;102209.59;;;0.85;83.46
70323;BME280;57735;56.264;43.898;2024-03-02T01:57:18;102195.75;;;0.81;83.72
70323;BME280;57735;56.264;43.898;2024-03-02T01:59:49;102200.13;;;0.81;84.06
70323;BME280;57735;56.264;43.898;2024-03-02T02:02:21;102198.41;;;0.80;84.04
70323;BME280;57735;56.264;43.898;2024-03-02T02:04:52;102204.34;;;0.85;84.29
70323;BME280;57735;56.264;43.898;2024-03-02T02:07:29;102201.69;;;0.86;84.39
70323;BME280;57735;56.264;43.898;2024-03-02T02:09:59;102199.09;;;0.85;84.20
70323;BME280;57735;56.264;43.898;2024-03-02T02:12:30;102200.94;;;0.83;84.37
70323;BME280;57735;56.264;43.898;2024-03-02T02:15:01;102212.31;;;0.83;84.21
70323;BME280;57735;56.264;43.898;2024-03-02T02:17:36;102200.19;;;0.79;84.56
70323;BME280;57735;56.264;43.898;2024-03-02T02:20:07;102202.72;;;0.82;84.72
70323;BME280;57735;56.264;43.898;2024-03-02T02:22:38;102192.03;;;0.87;84.98
70323;BME280;57735;56.264;43.898;2024-03-02T02:25:09;102197.16;;;0.91;85.18
70323;BME280;57735;56.264;43.898;2024-03-02T02:27:40;102191.81;;;0.94;85.00
70323;BME280;57735;56.264;43.898;2024-03-02T02:30:11;102204.13;;;0.92;85.00
70323;BME280;57735;56.264;43.898;2024-03-02T02:32:42;102192.72;;;0.93;84.96
70323;BME280;57735;56.264;43.898;2024-03-02T02:35:13;102194.63;;;0.88;84.95
70323;BME280;57735;56.264;43.898;2024-03-02T02:37:45;102195.53;;;0.87;85.18
70323;BME280;57735;56.264;43.898;2024-03-02T02:40:17;102197.41;;;0.84;85.48
70323;BME280;57735;56.264;43.898;2024-03-02T02:42:49;102202.50;;;0.88;85.64
70323;BME280;57735;56.264;43.898;2024-03-02T02:45:22;102203.22;;;0.93;85.71
70323;BME280;57735;56.264;43.898;2024-03-02T02:47:53;102203.06;;;0.99;85.77
70323;BME280;57735;56.264;43.898;2024-03-02T02:50:24;102206.47;;;1.01;85.52
70323;BME280;57735;56.264;43.898;2024-03-02T02:52:54;102205.56;;;1.02;85.29
70323;BME280;57735;56.264;43.898;2024-03-02T02:55:25;102211.63;;;1.04;85.25
70323;BME280;57735;56.264;43.898;2024-03-02T02:57:56;102209.03;;;1.03;85.01
70323;BME280;57735;56.264;43.898;2024-03-02T03:00:27;102211.50;;;1.09;85.13
70323;BME280;57735;56.264;43.898;2024-03-02T03:03:00;102213.16;;;1.12;84.82
70323;BME280;57735;56.264;43.898;2024-03-02T03:05:31;102210.63;;;1.09;84.85
70323;BME280;57735;56.264;43.898;2024-03-02T03:08:05;102210.53;;;1.12;84.94
70323;BME280;57735;56.264;43.898;2024-03-02T03:10:35;102211.41;;;1.12;85.00
70323;BME280;57735;56.264;43.898;2024-03-02T03:13:07;102214.03;;;1.12;84.80
70323;BME280;57735;56.264;43.898;2024-03-02T03:15:41;102203.53;;;1.12;84.88
70323;BME280;57735;56.264;43.898;2024-03-02T03:18:12;102208.81;;;1.11;84.70
70323;BME280;57735;56.264;43.898;2024-03-02T03:20:43;102200.00;;;1.13;84.82
70323;BME280;57735;56.264;43.898;2024-03-02T03:23:13;102204.25;;;1.17;84.97
70323;BME280;57735;56.264;43.898;2024-03-02T03:25:48;102207.69;;;1.18;85.01
70323;BME280;57735;56.264;43.898;2024-03-02T03:28:18;102206.75;;;1.20;84.98
70323;BME280;57735;56.264;43.898;2024-03-02T03:30:52;102203.25;;;1.20;84.71
70323;BME280;57735;56.264;43.898;2024-03-02T03:33:22;102211.25;;;1.17;84.46
70323;BME280;57735;56.264;43.898;2024-03-02T03:35:53;102211.34;;;1.14;84.49
70323;BME280;57735;56.264;43.898;2024-03-02T03:38:24;102208.78;;;1.12;84.76
70323;BME280;57735;56.264;43.898;2024-03-02T03:40:57;102212.25;;;1.13;84.68
70323;BME280;57735;56.264;43.898;2024-03-02T03:43:28;102221.00;;;1.13;84.55
70323;BME280;57735;56.264;43.898;2024-03-02T03:45:59;102224.53;;;1.12;84.55
70323;BME280;57735;56.264;43.898;2024-03-02T03:48:33;102215.75;;;1.13;84.90
70323;BME280;57735;56.264;43.898;2024-03-02T03:51:04;102227.03;;;1.17;85.15
70323;BME280;57735;56.264;43.898;2024-03-02T03:53:34;102228.63;;;1.21;85.01
70323;BME280;57735;56.264;43.898;2024-03-02T03:56:05;102233.00;;;1.20;84.69
70323;BME280;57735;56.264;43.898;2024-03-02T03:58:36;102226.09;;;1.18;84.44
70323;BME280;57735;56.264;43.898;2024-03-02T04:01:07;102235.69;;;1.19;84.50
70323;BME280;57735;56.264;43.898;2024-03-02T04:03:41;102235.69;;;1.19;84.29
70323;BME280;57735;56.264;43.898;2024-03-02T04:06:12;102234.91;;;1.17;83.68
70323;BME280;57735;56.264;43.898;2024-03-02T04:08:44;102241.06;;;1.16;83.42
70323;BME280;57735;56.264;43.898;2024-03-02T04:11:15;102245.44;;;1.15;83.36
70323;BME280;57735;56.264;43.898;2024-03-02T04:13:45;102248.91;;;1.17;83.15
70323;BME280;57735;56.264;43.898;2024-03-02T04:16:19;102238.38;;;1.17;83.05
70323;BME280;57735;56.264;43.898;2024-03-02T04:18:52;102246.19;;;1.19;83.04
70323;BME280;57735;56.264;43.898;2024-03-02T04:21:23;102247.00;;;1.21;83.18
70323;BME280;57735;56.264;43.898;2024-03-02T04:23:54;102247.78;;;1.24;83.08
70323;BME280;57735;56.264;43.898;2024-03-02T04:26:28;102241.53;;;1.28;83.22
70323;BME280;57735;56.264;43.898;2024-03-02T04:28:59;102246.69;;;1.31;83.22
70323;BME280;57735;56.264;43.898;2024-03-02T04:31:30;102249.28;;;1.33;82.98
70323;BME280;57735;56.264;43.898;2024-03-02T04:34:01;102256.25;;;1.34;82.67
70323;BME280;57735;56.264;43.898;2024-03-02T04:36:32;102247.41;;;1.35;82.75
70323;BME280;57735;56.264;43.898;2024-03-02T04:39:02;102247.41;;;1.35;82.41
70323;BME280;57735;56.264;43.898;2024-03-02T04:41:36;102256.25;;;1.34;82.30
70323;BME280;57735;56.264;43.898;2024-03-02T04:44:07;102249.34;;;1.30;82.04
70323;BME280;57735;56.264;43.898;2024-03-02T04:46:38;102255.59;;;1.26;82.13
70323;BME280;57735;56.264;43.898;2024-03-02T04:49:09;102254.75;;;1.25;82.02
70323;BME280;57735;56.264;43.898;2024-03-02T04:51:40;102251.25;;;1.25;82.21
70323;BME280;57735;56.264;43.898;2024-03-02T04:54:11;102254.66;;;1.28;82.44
70323;BME280;57735;56.264;43.898;2024-03-02T04:56:42;102247.53;;;1.32;82.86
70323;BME280;57735;56.264;43.898;2024-03-02T04:59:20;102243.09;;;1.34;82.71
70323;BME280;57735;56.264;43.898;2024-03-02T05:01:50;102244.06;;;1.31;82.63
70323;BME280;57735;56.264;43.898;2024-03-02T05:04:21;102244.91;;;1.32;83.16
70323;BME280;57735;56.264;43.898;2024-03-02T05:06:52;102243.09;;;1.34;83.06
70323;BME280;57735;56.264;43.898;2024-03-02T05:09:28;102245.66;;;1.35;83.12
70323;BME280;57735;56.264;43.898;2024-03-02T05:11:59;102253.44;;;1.38;83.21
70323;BME280;57735;56.264;43.898;2024-03-02T05:14:47;102246.47;;;1.37;83.14
70323;BME280;57735;56.264;43.898;2024-03-02T05:17:18;102247.41;;;1.35;83.05
70323;BME280;57735;56.264;43.898;2024-03-02T05:19:51;102258.06;;;1.32;82.98
70323;BME280;57735;56.264;43.898;2024-03-02T05:22:22;102264.31;;;1.28;83.10
70323;BME280;57735;56.264;43.898;2024-03-02T05:24:57;102255.47;;;1.30;83.10
70323;BME280;57735;56.264;43.898;2024-03-02T05:27:30;102258.06;;;1.32;83.00
70323;BME280;57735;56.264;43.898;2024-03-02T05:30:03;102262.41;;;1.33;83.04
70323;BME280;57735;56.264;43.898;2024-03-02T05:32:36;102259.69;;;1.34;82.96
70323;BME280;57735;56.264;43.898;2024-03-02T05:35:07;102263.94;;;1.38;82.91
70323;BME280;57735;56.264;43.898;2024-03-02T05:37:39;102261.31;;;1.38;82.79
70323;BME280;57735;56.264;43.898;2024-03-02T05:40:10;102262.19;;;1.39;82.87
70323;BME280;57735;56.264;43.898;2024-03-02T05:42:43;102262.06;;;1.44;82.65
70323;BME280;57735;56.264;43.898;2024-03-02T05:45:14;102273.47;;;1.43;82.58
70323;BME280;57735;56.264;43.898;2024-03-02T05:47:47;102271.69;;;1.43;82.57
70323;BME280;57735;56.264;43.898;2024-03-02T05:50:17;102264.69;;;1.44;82.56
70323;BME280;57735;56.264;43.898;2024-03-02T05:52:54;102273.34;;;1.47;82.38
70323;BME280;57735;56.264;43.898;2024-03-02T05:55:26;102272.25;;;1.53;82.42
70323;BME280;57735;56.264;43.898;2024-03-02T05:57:57;102277.41;;;1.56;82.28
70323;BME280;57735;56.264;43.898;2024-03-02T06:00:37;102286.88;;;1.61;82.11
70323;BME280;57735;56.264;43.898;2024-03-02T06:03:08;102278.91;;;1.64;82.05
70323;BME280;57735;56.264;43.898;2024-03-02T06:05:39;102282.38;;;1.65;82.08
70323;BME280;57735;56.264;43.898;2024-03-02T06:08:11;102281.44;;;1.67;81.91
70323;BME280;57735;56.264;43.898;2024-03-02T06:10:42;102288.19;;;1.74;81.96
70323;BME280;57735;56.264;43.898;2024-03-02T06:13:13;102281.84;;;1.82;81.60
70323;BME280;57735;56.264;43.898;2024-03-02T06:15:44;102294.75;;;1.88;81.36
70323;BME280;57735;56.264;43.898;2024-03-02T06:18:17;102298.00;;;1.96;81.16
70323;BME280;57735;56.264;43.898;2024-03-02T06:20:48;102287.38;;;1.99;80.85
70323;BME280;57735;56.264;43.898;2024-03-02T06:23:21;102282.72;;;2.07;80.63
70323;BME280;57735;56.264;43.898;2024-03-02T06:25:52;102285.00;;;2.18;80.54
70323;BME280;57735;56.264;43.898;2024-03-02T06:28:23;102289.06;;;2.26;80.13
70323;BME280;57735;56.264;43.898;2024-03-02T06:30:53;102284.56;;;2.30;79.57
70323;BME280;57735;56.264;43.898;2024-03-02T06:33:24;102287.81;;;2.36;79.15
70323;BME280;57735;56.264;43.898;2024-03-02T06:35:55;102289.38;;;2.42;78.81
70323;BME280;57735;56.264;43.898;2024-03-02T06:38:26;102286.63;;;2.45;78.19
70323;BME280;57735;56.264;43.898;2024-03-02T06:40:57;102296.00;;;2.52;78.04
70323;BME280;57735;56.264;43.898;2024-03-02T06:43:27;102294.94;;;2.58;77.75
70323;BME280;57735;56.264;43.898;2024-03-02T06:45:58;102300.91;;;2.63;77.74
70323;BME280;57735;56.264;43.898;2024-03-02T06:48:29;102299.81;;;2.68;77.59
70323;BME280;57735;56.264;43.898;2024-03-02T06:51:00;102311.09;;;2.72;77.36
70323;BME280;57735;56.264;43.898;2024-03-02T06:53:32;102307.91;;;2.87;77.17
70323;BME280;57735;56.264;43.898;2024-03-02T06:56:04;102303.81;;;3.02;76.73
70323;BME280;57735;56.264;43.898;2024-03-02T06:58:35;102305.16;;;3.13;75.90
70323;BME280;57735;56.264;43.898;2024-03-02T07:01:06;102311.22;;;3.15;75.55
70323;BME280;57735;56.264;43.898;2024-03-02T07:03:37;102298.75;;;3.19;75.29
70323;BME280;57735;56.264;43.898;2024-03-02T07:06:09;102297.00;;;3.20;74.44
70323;BME280;57735;56.264;43.898;2024-03-02T07:08:40;102317.16;;;3.21;74.84
70323;BME280;57735;56.264;43.898;2024-03-02T07:11:11;102301.41;;;3.19;74.38
70323;BME280;57735;56.264;43.898;2024-03-02T07:13:42;102316.50;;;3.15;74.29
70323;BME280;57735;56.264;43.898;2024-03-02T07:16:13;102305.09;;;3.15;74.51
70323;BME280;57735;56.264;43.898;2024-03-02T07:19:00;102317.41;;;3.14;74.19
70323;BME280;57735;56.264;43.898;2024-03-02T07:21:32;102312.94;;;3.17;74.22
70323;BME280;57735;56.264;43.898;2024-03-02T07:24:04;102314.19;;;3.30;74.31
70323;BME280;57735;56.264;43.898;2024-03-02T07:26:35;102315.47;;;3.41;73.85
70323;BME280;57735;56.264;43.898;2024-03-02T07:29:05;102305.44;;;3.51;73.37
70323;BME280;57735;56.264;43.898;2024-03-02T07:31:36;102307.75;;;3.59;73.04
70323;BME280;57735;56.264;43.898;2024-03-02T07:34:07;102301.16;;;3.69;72.89
70323;BME280;57735;56.264;43.898;2024-03-02T07:36:38;102310.75;;;3.71;72.18
70323;BME280;57735;56.264;43.898;2024-03-02T07:39:09;102310.75;;;3.71;72.06
70323;BME280;57735;56.264;43.898;2024-03-02T07:41:40;102311.66;;;3.70;71.96
70323;BME280;57735;56.264;43.898;2024-03-02T07:44:14;102311.72;;;3.69;71.87
70323;BME280;57735;56.264;43.898;2024-03-02T07:46:48;102305.47;;;3.71;71.88
70323;BME280;57735;56.264;43.898;2024-03-02T07:49:22;102309.59;;;3.78;72.11
70323;BME280;57735;56.264;43.898;2024-03-02T07:51:53;102304.13;;;3.83;71.94
70323;BME280;57735;56.264;43.898;2024-03-02T07:54:24;102304.25;;;3.80;71.44
70323;BME280;57735;56.264;43.898;2024-03-02T07:56:55;102303.63;;;3.73;71.15
70323;BME280;57735;56.264;43.898;2024-03-02T07:59:25;102314.97;;;3.75;71.36
70323;BME280;57735;56.264;43.898;2024-03-02T08:01:58;102303.41;;;3.79;71.18
70323;BME280;57735;56.264;43.898;2024-03-02T08:04:29;102314.41;;;3.89;71.07
70323;BME280;57735;56.264;43.898;2024-03-02T08:07:00;102305.63;;;3.89;70.78
70323;BME280;57735;56.264;43.898;2024-03-02T08:09:31;102308.41;;;3.85;71.03
70323;BME280;57735;56.264;43.898;2024-03-02T08:12:02;102308.66;;;3.79;71.41
70323;BME280;57735;56.264;43.898;2024-03-02T08:14:33;102313.44;;;3.70;71.64
70323;BME280;57735;56.264;43.898;2024-03-02T08:17:04;102311.81;;;3.67;71.73
70323;BME280;57735;56.264;43.898;2024-03-02T08:19:39;102309.03;;;3.70;71.53
70323;BME280;57735;56.264;43.898;2024-03-02T08:22:17;102310.50;;;3.77;71.51
70323;BME280;57735;56.264;43.898;2024-03-02T08:24:48;102306.56;;;3.88;71.50
70323;BME280;57735;56.264;43.898;2024-03-02T08:27:22;102305.41;;;3.95;70.74
70323;BME280;57735;56.264;43.898;2024-03-02T08:29:52;102299.53;;;4.08;70.09
70323;BME280;57735;56.264;43.898;2024-03-02T08:32:23;102295.72;;;4.15;70.21
70323;BME280;57735;56.264;43.898;2024-03-02T08:34:54;102302.56;;;4.19;70.04
70323;BME280;57735;56.264;43.898;2024-03-02T08:37:25;102303.28;;;4.23;70.05
70323;BME280;57735;56.264;43.898;2024-03-02T08:39:56;102301.88;;;4.16;69.83
70323;BME280;57735;56.264;43.898;2024-03-02T08:42:27;102303.88;;;4.09;69.65
70323;BME280;57735;56.264;43.898;2024-03-02T08:44:58;102310.16;;;4.07;69.68
70323;BME280;57735;56.264;43.898;2024-03-02T08:47:31;102311.75;;;4.11;69.81
70323;BME280;57735;56.264;43.898;2024-03-02T08:50:02;102301.88;;;4.16;69.66
70323;BME280;57735;56.264;43.898;2024-03-02T08:52:36;102314.06;;;4.18;69.43
70323;BME280;57735;56.264;43.898;2024-03-02T08:55:08;102315.19;;;4.13;69.17
70323;BME280;57735;56.264;43.898;2024-03-02T08:57:40;102310.03;;;4.10;69.18
70323;BME280;57735;56.264;43.898;2024-03-02T09:00:14;102304.81;;;4.08;69.31
70323;BME280;57735;56.264;43.898;2024-03-02T09:02:45;102300.63;;;4.03;69.18
70323;BME280;57735;56.264;43.898;2024-03-02T09:05:18;102303.63;;;3.95;69.62
70323;BME280;57735;56.264;43.898;2024-03-02T09:07:49;102299.44;;;3.90;69.69
70323;BME280;57735;56.264;43.898;2024-03-02T09:10:20;102303.28;;;3.82;70.04
70323;BME280;57735;56.264;43.898;2024-03-02T09:12:51;102298.25;;;3.76;70.26
70323;BME280;57735;56.264;43.898;2024-03-02T09:15:25;102299.22;;;3.74;70.43
70323;BME280;57735;56.264;43.898;2024-03-02T09:17:55;102303.63;;;3.73;70.46
70323;BME280;57735;56.264;43.898;2024-03-02T09:20:26;102296.75;;;3.69;70.05
70323;BME280;57735;56.264;43.898;2024-03-02T09:22:58;102304.66;;;3.69;70.45
70323;BME280;57735;56.264;43.898;2024-03-02T09:25:28;102297.50;;;3.73;70.11
70323;BME280;57735;56.264;43.898;2024-03-02T09:27:59;102296.09;;;3.64;70.03
70323;BME280;57735;56.264;43.898;2024-03-02T09:30:39;102304.19;;;3.60;70.31
70323;BME280;57735;56.264;43.898;2024-03-02T09:33:10;102312.28;;;3.55;70.42
70323;BME280;57735;56.264;43.898;2024-03-02T09:35:40;102305.13;;;3.59;70.69
70323;BME280;57735;56.264;43.898;2024-03-02T09:38:11;102308.50;;;3.62;70.37
70323;BME280;57735;56.264;43.898;2024-03-02T09:40:42;102300.19;;;3.71;70.37
70323;BME280;57735;56.264;43.898;2024-03-02T09:43:13;102307.06;;;3.75;70.16
70323;BME280;57735;56.264;43.898;2024-03-02T09:45:45;102310.63;;;3.74;69.91
70323;BME280;57735;56.264;43.898;2024-03-02T09:48:15;102311.94;;;3.64;69.61
70323;BME280;57735;56.264;43.898;2024-03-02T09:50:49;102316.47;;;3.61;69.91
70323;BME280;57735;56.264;43.898;2024-03-02T09:53:20;102317.44;;;3.58;70.04
70323;BME280;57735;56.264;43.898;2024-03-02T09:55:51;102318.53;;;3.53;69.98
70323;BME280;57735;56.264;43.898;2024-03-02T09:58:21;102317.94;;;3.46;70.69
70323;BME280;57735;56.264;43.898;2024-03-02T10:00:52;102328.75;;;3.38;70.70
70323;BME280;57735;56.264;43.898;2024-03-02T10:03:26;102317.38;;;3.38;70.53
70323;BME280;57735;56.264;43.898;2024-03-02T10:06:20;102321.66;;;3.40;70.59
70323;BME280;57735;56.264;43.898;2024-03-02T10:08:52;102325.84;;;3.46;70.16
70323;BME280;57735;56.264;43.898;2024-03-02T10:11:29;102322.41;;;3.44;70.44
70323;BME280;57735;56.264;43.898;2024-03-02T10:14:11;102323.44;;;3.40;70.33
70323;BME280;57735;56.264;43.898;2024-03-02T10:16:44;102324.56;;;3.34;70.20
70323;BME280;57735;56.264;43.898;2024-03-02T10:19:19;102322.94;;;3.30;70.37
70323;BME280;57735;56.264;43.898;2024-03-02T10:21:52;102330.00;;;3.30;70.54
70323;BME280;57735;56.264;43.898;2024-03-02T10:24:23;102333.44;;;3.32;70.67
70323;BME280;57735;56.264;43.898;2024-03-02T10:26:54;102334.41;;;3.29;70.66
70323;BME280;57735;56.264;43.898;2024-03-02T10:29:29;102336.28;;;3.26;70.81
70323;BME280;57735;56.264;43.898;2024-03-02T10:32:02;102337.25;;;3.23;70.93
70323;BME280;57735;56.264;43.898;2024-03-02T10:34:33;102338.94;;;3.26;71.35
70323;BME280;57735;56.264;43.898;2024-03-02T10:37:05;102343.19;;;3.30;71.31
70323;BME280;57735;56.264;43.898;2024-03-02T10:39:37;102348.66;;;3.24;71.28
70323;BME280;57735;56.264;43.898;2024-03-02T10:42:11;102346.28;;;3.18;71.23
70323;BME280;57735;56.264;43.898;2024-03-02T10:44:45;102342.78;;;3.17;71.75
70323;BME280;57735;56.264;43.898;2024-03-02T10:47:18;102347.97;;;3.19;71.63
70323;BME280;57735;56.264;43.898;2024-03-02T10:49:51;102346.09;;;3.22;71.60
70323;BME280;57735;56.264;43.898;2024-03-02T10:52:23;102338.13;;;3.24;71.72
70323;BME280;57735;56.264;43.898;2024-03-02T10:54:54;102346.56;;;3.33;71.79
70323;BME280;57735;56.264;43.898;2024-03-02T10:57:26;102352.31;;;3.43;71.86
70323;BME280;57735;56.264;43.898;2024-03-02T11:00:03;102341.97;;;3.60;71.48
70323;BME280;57735;56.264;43.898;2024-03-02T11:02:39;102345.72;;;3.76;71.52
70323;BME280;57735;56.264;43.898;2024-03-02T11:05:11;102355.28;;;3.79;71.35
70323;BME280;57735;56.264;43.898;2024-03-02T11:07:44;102354.97;;;3.86;71.06
70323;BME280;57735;56.264;43.898;2024-03-02T11:10:16;102358.16;;;3.95;70.71
70323;BME280;57735;56.264;43.898;2024-03-02T11:13:02;102357.25;;;3.96;70.20
70323;BME280;57735;56.264;43.898;2024-03-02T11:15:34;102359.31;;;3.88;70.30
70323;BME280;57735;56.264;43.898;2024-03-02T11:18:08;102356.88;;;3.83;70.45
70323;BME280;57735;56.264;43.898;2024-03-02T11:20:42;102355.81;;;3.87;70.77
70323;BME280;57735;56.264;43.898;2024-03-02T11:23:15;102359.31;;;3.88;70.59
70323;BME280;57735;56.264;43.898;2024-03-02T11:25:46;102362.81;;;3.88;70.59
70323;BME280;57735;56.264;43.898;2024-03-02T11:28:35;102356.56;;;3.91;70.18
70323;BME280;57735;56.264;43.898;2024-03-02T11:31:07;102359.19;;;3.91;70.31
70323;BME280;57735;56.264;43.898;2024-03-02T11:33:38;102361.16;;;3.85;69.93
70323;BME280;57735;56.264;43.898;2024-03-02T11:36:09;102355.88;;;3.85;69.99
70323;BME280;57735;56.264;43.898;2024-03-02T11:38:43;102351.34;;;3.89;69.72
70323;BME280;57735;56.264;43.898;2024-03-02T11:41:16;102354.09;;;3.86;69.58
70323;BME280;57735;56.264;43.898;2024-03-02T11:43:48;102356.63;;;3.89;69.96
70323;BME280;57735;56.264;43.898;2024-03-02T11:46:22;102360.13;;;3.90;69.87
70323;BME280;57735;56.264;43.898;2024-03-02T11:48:53;102362.75;;;3.90;69.88
70323;BME280;57735;56.264;43.898;2024-03-02T11:51:24;102359.19;;;3.91;69.65
70323;BME280;57735;56.264;43.898;2024-03-02T11:54:02;102369.06;;;3.85;69.43
70323;BME280;57735;56.264;43.898;2024-03-02T11:56:34;102364.81;;;3.83;69.77
70323;BME280;57735;56.264;43.898;2024-03-02T11:59:06;102365.91;;;3.77;69.89
70323;BME280;57735;56.264;43.898;2024-03-02T12:01:37;102380.81;;;3.78;70.09
70323;BME280;57735;56.264;43.898;2024-03-02T12:04:08;102381.53;;;3.82;70.15
70323;BME280;57735;56.264;43.898;2024-03-02T12:06:40;102373.44;;;3.86;69.95
70323;BME280;57735;56.264;43.898;2024-03-02T12:09:15;102370.13;;;3.81;70.06
70323;BME280;57735;56.264;43.898;2024-03-02T12:11:46;102383.44;;;3.78;70.17
70323;BME280;57735;56.264;43.898;2024-03-02T12:14:17;102378.22;;;3.77;70.29
70323;BME280;57735;56.264;43.898;2024-03-02T12:16:50;102395.81;;;3.76;70.07
70323;BME280;57735;56.264;43.898;2024-03-02T12:19:22;102375.75;;;3.72;70.23
70323;BME280;57735;56.264;43.898;2024-03-02T12:21:58;102383.03;;;3.67;70.09
70323;BME280;57735;56.264;43.898;2024-03-02T12:24:33;102386.44;;;3.69;70.46
70323;BME280;57735;56.264;43.898;2024-03-02T12:27:08;102390.78;;;3.70;70.51
70323;BME280;57735;56.264;43.898;2024-03-02T12:29:39;102390.00;;;3.68;70.47
70323;BME280;57735;56.264;43.898;2024-03-02T12:32:10;102385.81;;;3.63;70.61
70323;BME280;57735;56.264;43.898;2024-03-02T12:34:41;102388.63;;;3.58;70.82
70323;BME280;57735;56.264;43.898;2024-03-02T12:37:12;102401.06;;;3.55;70.67
70323;BME280;57735;56.264;43.898;2024-03-02T12:39:46;102392.31;;;3.54;70.75
70323;BME280;57735;56.264;43.898;2024-03-02T12:42:17;102389.81;;;3.51;70.88
70323;BME280;57735;56.264;43.898;2024-03-02T12:44:48;102386.22;;;3.52;71.20
70323;BME280;57735;56.264;43.898;2024-03-02T12:47:19;102390.56;;;3.53;70.91
70323;BME280;57735;56.264;43.898;2024-03-02T12:49:50;102387.03;;;3.54;70.77
70323;BME280;57735;56.264;43.898;2024-03-02T12:52:23;102385.31;;;3.53;70.89
70323;BME280;57735;56.264;43.898;2024-03-02T12:54:54;102394.03;;;3.55;71.03
70323;BME280;57735;56.264;43.898;2024-03-02T12:57:29;102385.06;;;3.59;71.02
70323;BME280;57735;56.264;43.898;2024-03-02T13:00:05;102391.16;;;3.61;70.55
70323;BME280;57735;56.264;43.898;2024-03-02T13:02:43;102383.56;;;3.75;70.28
70323;BME280;57735;56.264;43.898;2024-03-02T13:05:16;102382.25;;;3.85;70.08
70323;BME280;57735;56.264;43.898;2024-03-02T13:07:50;102385.94;;;4.03;69.47
70323;BME280;57735;56.264;43.898;2024-03-02T13:10:22;102383.56;;;3.97;68.24
70323;BME280;57735;56.264;43.898;2024-03-02T13:12:53;102370.78;;;3.86;68.59
70323;BME280;57735;56.264;43.898;2024-03-02T13:15:25;102374.66;;;3.78;68.75
70323;BME280;57735;56.264;43.898;2024-03-02T13:17:59;102373.25;;;3.69;68.81
70323;BME280;57735;56.264;43.898;2024-03-02T13:20:32;102381.63;;;3.57;69.35